Burnham, Illinois
Current Conditions -  °F | °C
As of 1:45 PM on Monday 26 Jan 2015 (Local Time) from KGYY Reporting Station
Overcast Overcast  
Wind Chill: 23°   Ceiling: 2000
Heat Index: 28°   Visibility: 10mi
Dew Point: 16°   Wind: 5mph
Humidity: 59%   Direction: 180°S
Pressure: 29.89"   Gusts: NA
Location:  41.6563°N, 87.5444°W
Report Text: KGYY 261945Z 18004KT 10SM BKN020 OVC070 M02/M09 A2989
Loading
Personal Weather Stations






























Interactive Weather Map New forecast layout! Learn more

10-Day Weather Forecast

Advertisements
Track Severe Weather on mobile